Time;durP1;ratioP1;P1;durP2;ratioP2;P2;SDS_P1;SDS_P2;PMS_P1;PMS_P2;Temp;Humidity;BMP_temperature;BMP_pressure;BME280_temperature;BME280_humidity;BME280_pressure;Samples;Min_cycle;Max_cycle;Signal;HPM_P1;HPM_P2
2020/12/16 00:00:34;;;;;;;27.73;18.42;;;;;;;;;;5093709;28;20281;-61
2020/12/16 00:03:01;;;;;;;27.27;18.90;;;;;;;;;;5094143;28;20201;-62
2020/12/16 00:05:28;;;;;;;26.05;18.75;;;;;;;;;;5093664;28;20212;-62
2020/12/16 00:07:55;;;;;;;25.52;18.27;;;;;;;;;;5093678;28;20671;-63
2020/12/16 00:10:21;;;;;;;24.77;18.45;;;;;;;;;;5093205;28;20298;-61
2020/12/16 00:12:48;;;;;;;24.52;18.70;;;;;;;;;;5093364;28;20211;-62
2020/12/16 00:15:15;;;;;;;24.20;18.00;;;;;;;;;;5094322;28;20203;-62
2020/12/16 00:17:42;;;;;;;27.98;18.58;;;;;;;;;;5093610;28;20196;-63
2020/12/16 00:20:09;;;;;;;25.00;18.92;;;;;;;;;;5093577;28;20593;-61
2020/12/16 00:22:37;;;;;;;25.17;19.02;;;;;;;;;;5094369;28;20208;-62
2020/12/16 00:25:04;;;;;;;27.77;20.50;;;;;;;;;;5097960;28;20207;-61
2020/12/16 00:27:30;;;;;;;24.67;18.13;;;;;;;;;;5097784;28;20212;-62
2020/12/16 00:29:57;;;;;;;23.90;18.55;;;;;;;;;;5097522;28;20734;-63
2020/12/16 00:32:24;;;;;;;26.42;18.90;;;;;;;;;;5097834;28;20200;-62
2020/12/16 00:34:51;;;;;;;25.80;18.15;;;;;;;;;;5097643;28;20203;-62
2020/12/16 00:37:18;;;;;;;25.00;18.77;;;;;;;;;;5097484;28;20200;-61
2020/12/16 00:39:45;;;;;;;24.20;18.80;;;;;;;;;;5097745;28;20204;-62
2020/12/16 00:42:12;;;;;;;27.15;18.17;;;;;;;;;;5098195;28;20204;-62
2020/12/16 00:44:39;;;;;;;25.25;19.15;;;;;;;;;;5103108;28;20570;-62
2020/12/16 00:47:06;;;;;;;26.10;18.75;;;;;;;;;;5102565;28;20272;-61
2020/12/16 00:49:32;;;;;;;24.98;18.70;;;;;;;;;;5103262;28;20254;-62
2020/12/16 00:52:00;;;;;;;24.00;18.10;;;;;;;;;;5100885;28;20265;-62
2020/12/16 00:54:27;;;;;;;24.35;17.52;;;;;;;;;;5098195;28;20200;-62
2020/12/16 00:56:53;;;;;;;26.17;18.65;;;;;;;;;;5098372;28;20523;-62
2020/12/16 00:59:21;;;;;;;25.27;19.37;;;;;;;;;;5097671;28;20200;-62
2020/12/16 01:01:47;;;;;;;25.67;18.73;;;;;;;;;;5097109;28;20516;-64
2020/12/16 01:04:14;;;;;;;29.05;20.65;;;;;;;;;;5097020;28;20196;-61
2020/12/16 01:06:41;;;;;;;25.20;19.63;;;;;;;;;;5096445;28;20215;-63
2020/12/16 01:09:09;;;;;;;27.63;19.30;;;;;;;;;;5096597;28;20223;-63
2020/12/16 01:11:36;;;;;;;24.40;19.30;;;;;;;;;;5096612;28;20220;-63
2020/12/16 01:14:03;;;;;;;25.23;18.45;;;;;;;;;;5096707;28;20211;-62
2020/12/16 01:16:34;;;;;;;26.58;18.90;;;;;;;;;;5096347;28;20200;-62
2020/12/16 01:19:00;;;;;;;27.55;19.73;;;;;;;;;;5096655;28;20215;-62
2020/12/16 01:21:27;;;;;;;24.70;19.60;;;;;;;;;;5096564;28;20220;-62
2020/12/16 01:23:54;;;;;;;28.03;20.70;;;;;;;;;;5096785;28;20199;-62
2020/12/16 01:26:21;;;;;;;28.75;19.25;;;;;;;;;;5096543;28;20442;-61
2020/12/16 01:28:48;;;;;;;24.63;18.92;;;;;;;;;;5096573;28;20212;-62
2020/12/16 01:31:15;;;;;;;27.23;18.35;;;;;;;;;;5095968;28;20220;-62
2020/12/16 01:33:42;;;;;;;27.00;20.10;;;;;;;;;;5096175;28;20207;-63
2020/12/16 01:36:08;;;;;;;27.33;18.58;;;;;;;;;;5095920;28;20200;-62
2020/12/16 01:38:35;;;;;;;29.80;20.60;;;;;;;;;;5097901;28;20192;-62
2020/12/16 01:41:05;;;;;;;23.48;17.30;;;;;;;;;;5098154;28;21043;-61
2020/12/16 01:43:36;;;;;;;26.52;18.88;;;;;;;;;;5096503;28;20200;-62
2020/12/16 01:46:03;;;;;;;26.10;19.05;;;;;;;;;;5096292;28;20200;-62
2020/12/16 01:48:30;;;;;;;25.98;19.75;;;;;;;;;;5095889;28;20216;-63
2020/12/16 01:50:57;;;;;;;29.90;21.80;;;;;;;;;;5095997;28;20228;-61
2020/12/16 01:53:25;;;;;;;28.15;19.33;;;;;;;;;;5096400;28;20450;-62
2020/12/16 01:55:54;;;;;;;32.25;19.90;;;;;;;;;;5096322;28;20559;-63
2020/12/16 01:58:22;;;;;;;26.40;19.23;;;;;;;;;;5096477;28;20224;-61
2020/12/16 02:00:50;;;;;;;27.85;20.00;;;;;;;;;;5096014;28;20224;-63
2020/12/16 02:03:18;;;;;;;27.83;19.67;;;;;;;;;;5095654;28;20675;-62
2020/12/16 02:05:46;;;;;;;28.48;20.30;;;;;;;;;;5095488;28;20733;-63
2020/12/16 02:08:14;;;;;;;26.25;19.35;;;;;;;;;;5096616;28;20330;-62
2020/12/16 02:10:41;;;;;;;29.15;21.27;;;;;;;;;;5095481;28;20250;-63
2020/12/16 02:13:08;;;;;;;27.83;20.45;;;;;;;;;;5095845;28;20572;-62
2020/12/16 02:15:35;;;;;;;32.83;20.40;;;;;;;;;;5095215;28;20200;-62
2020/12/16 02:18:03;;;;;;;33.47;21.60;;;;;;;;;;5095673;28;20201;-62
2020/12/16 02:20:29;;;;;;;29.85;19.13;;;;;;;;;;5095443;28;20243;-62
2020/12/16 02:22:56;;;;;;;29.17;19.27;;;;;;;;;;5095442;28;20578;-62
2020/12/16 02:25:24;;;;;;;33.38;21.20;;;;;;;;;;5095121;28;20230;-63
2020/12/16 02:27:51;;;;;;;35.80;23.13;;;;;;;;;;5095636;28;20212;-62
2020/12/16 02:30:17;;;;;;;32.20;21.38;;;;;;;;;;5095338;28;20231;-62
2020/12/16 02:32:44;;;;;;;29.45;21.15;;;;;;;;;;5095390;28;20239;-62
2020/12/16 02:35:11;;;;;;;30.08;20.67;;;;;;;;;;5096878;28;20197;-62
2020/12/16 02:37:37;;;;;;;30.35;19.15;;;;;;;;;;5094794;28;20192;-62
2020/12/16 02:40:04;;;;;;;29.92;19.88;;;;;;;;;;5094714;28;20601;-62
2020/12/16 02:42:32;;;;;;;31.88;20.17;;;;;;;;;;5094974;28;20223;-61
2020/12/16 02:44:59;;;;;;;32.33;22.02;;;;;;;;;;5095095;28;20207;-62
2020/12/16 02:47:26;;;;;;;33.22;20.52;;;;;;;;;;5093633;28;20200;-61
2020/12/16 02:49:53;;;;;;;35.53;23.27;;;;;;;;;;5094894;28;20224;-62
2020/12/16 02:52:20;;;;;;;35.78;22.45;;;;;;;;;;5094884;28;20672;-63
2020/12/16 02:54:47;;;;;;;31.05;21.42;;;;;;;;;;5095281;28;20204;-62
2020/12/16 02:57:13;;;;;;;36.95;22.05;;;;;;;;;;5094609;28;20672;-62
2020/12/16 02:59:53;;;;;;;38.13;22.50;;;;;;;;;;5094682;28;20611;-63
2020/12/16 03:02:19;;;;;;;38.20;20.90;;;;;;;;;;5097463;28;20202;-62
2020/12/16 03:04:46;;;;;;;34.80;22.42;;;;;;;;;;5096230;28;20223;-62
2020/12/16 03:07:13;;;;;;;34.88;22.10;;;;;;;;;;5094810;28;20223;-62
2020/12/16 03:09:40;;;;;;;35.05;22.30;;;;;;;;;;5094823;28;20228;-62
2020/12/16 03:12:06;;;;;;;37.60;21.65;;;;;;;;;;5095319;28;20270;-62
2020/12/16 03:14:33;;;;;;;37.60;23.08;;;;;;;;;;5095512;28;20262;-62
2020/12/16 03:17:01;;;;;;;38.40;22.00;;;;;;;;;;5095667;28;20226;-63
2020/12/16 03:19:27;;;;;;;35.38;21.15;;;;;;;;;;5095040;28;20193;-62
2020/12/16 03:21:54;;;;;;;45.60;23.67;;;;;;;;;;5095159;28;20228;-62
2020/12/16 03:24:21;;;;;;;45.25;24.25;;;;;;;;;;5095023;28;20207;-63
2020/12/16 03:26:48;;;;;;;42.40;24.13;;;;;;;;;;5094380;28;20204;-61
2020/12/16 03:29:15;;;;;;;40.70;23.35;;;;;;;;;;5095173;28;20242;-62
2020/12/16 03:31:41;;;;;;;38.78;23.02;;;;;;;;;;5095800;28;20235;-62
2020/12/16 03:34:09;;;;;;;46.38;26.15;;;;;;;;;;5097186;28;20208;-62
2020/12/16 03:36:36;;;;;;;41.60;24.02;;;;;;;;;;5096369;28;20614;-60
2020/12/16 03:39:04;;;;;;;43.33;24.40;;;;;;;;;;5095082;28;20243;-62
2020/12/16 03:41:30;;;;;;;44.17;24.80;;;;;;;;;;5094033;28;20220;-61
2020/12/16 03:43:57;;;;;;;46.80;25.38;;;;;;;;;;5093969;28;20207;-62
2020/12/16 03:46:24;;;;;;;46.92;26.75;;;;;;;;;;5094380;28;20200;-62
2020/12/16 03:48:50;;;;;;;41.75;24.63;;;;;;;;;;5094096;28;20220;-63
2020/12/16 03:51:18;;;;;;;49.65;27.25;;;;;;;;;;5094059;28;20224;-63
2020/12/16 03:53:45;;;;;;;55.13;25.88;;;;;;;;;;5094135;28;20197;-62
2020/12/16 03:56:13;;;;;;;57.53;27.60;;;;;;;;;;5093913;28;20200;-63
2020/12/16 03:58:41;;;;;;;56.40;27.00;;;;;;;;;;5093548;28;20571;-62
2020/12/16 04:01:08;;;;;;;61.05;27.25;;;;;;;;;;5093714;28;20227;-63
2020/12/16 04:03:35;;;;;;;58.42;29.05;;;;;;;;;;5093386;28;20645;-61
2020/12/16 04:07:30;;;;;;;56.15;28.33;;;;;;;;;;5132577;27;20554;-62
2020/12/16 04:09:56;;;;;;;59.22;28.75;;;;;;;;;;5131747;27;20268;-62
2020/12/16 04:12:23;;;;;;;59.42;28.60;;;;;;;;;;5131945;27;20268;-62
2020/12/16 04:14:50;;;;;;;54.53;27.73;;;;;;;;;;5131886;27;20230;-62
2020/12/16 04:17:17;;;;;;;52.92;27.23;;;;;;;;;;5131600;27;20206;-62
2020/12/16 04:19:43;;;;;;;50.13;26.13;;;;;;;;;;5132962;27;20194;-62
2020/12/16 04:22:10;;;;;;;55.08;27.67;;;;;;;;;;5131858;27;20203;-62
2020/12/16 04:24:38;;;;;;;54.15;26.83;;;;;;;;;;5132070;27;20276;-63
2020/12/16 04:27:04;;;;;;;59.05;26.83;;;;;;;;;;5145568;27;20211;-62
2020/12/16 04:29:31;;;;;;;53.15;26.25;;;;;;;;;;5148096;27;20199;-62
2020/12/16 04:31:58;;;;;;;50.38;26.58;;;;;;;;;;5147177;27;20203;-62
2020/12/16 04:34:25;;;;;;;59.38;28.80;;;;;;;;;;5145654;27;20207;-62
2020/12/16 04:36:52;;;;;;;55.58;27.75;;;;;;;;;;5141703;27;20586;-61
2020/12/16 04:39:19;;;;;;;52.92;26.50;;;;;;;;;;5138573;27;20195;-61
2020/12/16 04:41:47;;;;;;;55.63;27.10;;;;;;;;;;5131473;27;20219;-62
2020/12/16 04:44:14;;;;;;;49.25;25.75;;;;;;;;;;5131678;28;20199;-62
2020/12/16 04:46:42;;;;;;;53.95;27.70;;;;;;;;;;5131269;27;20280;-61
2020/12/16 04:49:09;;;;;;;49.13;26.25;;;;;;;;;;5131209;27;20195;-61
2020/12/16 04:51:37;;;;;;;48.88;26.27;;;;;;;;;;5130796;27;20718;-63
2020/12/16 04:54:05;;;;;;;49.40;25.38;;;;;;;;;;5131031;27;20539;-63
2020/12/16 04:56:33;;;;;;;45.63;25.95;;;;;;;;;;5130540;27;20244;-62
2020/12/16 04:59:01;;;;;;;53.05;26.42;;;;;;;;;;5131117;27;20600;-63
2020/12/16 05:01:28;;;;;;;48.25;25.95;;;;;;;;;;5130957;27;20564;-61
2020/12/16 05:03:54;;;;;;;54.15;27.05;;;;;;;;;;5130626;27;20577;-59
2020/12/16 05:06:34;;;;;;;48.85;26.63;;;;;;;;;;5130712;27;20233;-61
2020/12/16 05:09:05;;;;;;;53.25;26.73;;;;;;;;;;5130715;27;20203;-61
2020/12/16 05:11:49;;;;;;;56.92;27.92;;;;;;;;;;5130135;27;20219;-61
2020/12/16 05:14:18;;;;;;;48.45;26.27;;;;;;;;;;5130774;27;20187;-62
2020/12/16 05:16:51;;;;;;;50.63;27.00;;;;;;;;;;5128710;27;20240;-61
2020/12/16 05:19:29;;;;;;;49.92;27.17;;;;;;;;;;5116509;28;20222;-61
2020/12/16 05:22:10;;;;;;;54.33;27.50;;;;;;;;;;5116617;28;20775;-62
2020/12/16 05:24:37;;;;;;;47.78;26.45;;;;;;;;;;5116959;28;20191;-61
2020/12/16 05:27:04;;;;;;;48.80;27.10;;;;;;;;;;5117101;28;20589;-61
2020/12/16 05:29:32;;;;;;;55.00;29.52;;;;;;;;;;5116609;28;20693;-60
2020/12/16 05:31:58;;;;;;;44.17;26.10;;;;;;;;;;5117054;28;20249;-61
2020/12/16 05:34:28;;;;;;;48.13;26.38;;;;;;;;;;5117286;27;20331;-61
2020/12/16 05:36:55;;;;;;;42.58;24.48;;;;;;;;;;5117799;27;20207;-61
2020/12/16 05:39:22;;;;;;;45.40;24.40;;;;;;;;;;5117267;27;20218;-61
2020/12/16 05:41:55;;;;;;;49.78;26.10;;;;;;;;;;5118090;28;20220;-61
2020/12/16 05:44:24;;;;;;;44.38;26.10;;;;;;;;;;5118489;28;20187;-60
2020/12/16 05:46:52;;;;;;;44.30;26.50;;;;;;;;;;5118585;28;20220;-61
2020/12/16 05:49:22;;;;;;;46.55;26.25;;;;;;;;;;5117620;28;20199;-61
2020/12/16 05:51:55;;;;;;;42.72;25.95;;;;;;;;;;5117419;28;20220;-61
2020/12/16 05:54:23;;;;;;;44.53;24.80;;;;;;;;;;5118510;27;20184;-62
2020/12/16 05:57:09;;;;;;;42.20;23.77;;;;;;;;;;5117025;28;20199;-61
2020/12/16 05:59:35;;;;;;;45.83;26.15;;;;;;;;;;5116735;28;20554;-61
2020/12/16 06:02:05;;;;;;;46.60;28.50;;;;;;;;;;5118467;28;20214;-61
2020/12/16 06:04:33;;;;;;;48.63;27.02;;;;;;;;;;5120471;28;20252;-60
2020/12/16 06:07:00;;;;;;;46.95;25.98;;;;;;;;;;5120561;28;20223;-61
2020/12/16 06:09:27;;;;;;;47.08;26.95;;;;;;;;;;5120105;28;20573;-61
2020/12/16 06:11:55;;;;;;;52.63;28.77;;;;;;;;;;5116437;28;20219;-60
2020/12/16 06:14:22;;;;;;;51.20;27.08;;;;;;;;;;5116678;28;20202;-61
2020/12/16 06:16:49;;;;;;;51.33;28.73;;;;;;;;;;5116473;28;20294;-62
2020/12/16 06:19:26;;;;;;;50.53;27.23;;;;;;;;;;5117011;28;20200;-62
2020/12/16 06:21:56;;;;;;;46.05;27.00;;;;;;;;;;5115689;28;20575;-61
2020/12/16 06:24:25;;;;;;;51.78;28.90;;;;;;;;;;5115879;28;20219;-61
2020/12/16 06:26:55;;;;;;;60.25;30.35;;;;;;;;;;5115343;28;20659;-61
2020/12/16 06:29:22;;;;;;;51.55;27.85;;;;;;;;;;5116695;28;20554;-62
2020/12/16 06:31:49;;;;;;;55.03;29.85;;;;;;;;;;5115819;28;20718;-61
2020/12/16 06:34:16;;;;;;;49.38;27.33;;;;;;;;;;5116621;28;20196;-60
2020/12/16 06:36:45;;;;;;;43.50;25.85;;;;;;;;;;5115947;28;20682;-61
2020/12/16 06:39:15;;;;;;;47.70;26.90;;;;;;;;;;5115568;28;20201;-60
2020/12/16 06:41:51;;;;;;;52.75;29.75;;;;;;;;;;5115350;28;20711;-62
2020/12/16 06:44:18;;;;;;;56.97;29.63;;;;;;;;;;5115954;28;20275;-61
2020/12/16 06:46:46;;;;;;;55.53;29.38;;;;;;;;;;5114856;28;20734;-62
2020/12/16 06:49:29;;;;;;;51.83;28.08;;;;;;;;;;5115887;28;20203;-60
2020/12/16 06:51:57;;;;;;;52.78;28.58;;;;;;;;;;5114518;28;20268;-61
2020/12/16 06:54:25;;;;;;;59.97;30.48;;;;;;;;;;5114866;28;20199;-59
2020/12/16 06:57:10;;;;;;;59.58;31.85;;;;;;;;;;5114857;28;20200;-65
2020/12/16 06:59:45;;;;;;;55.35;28.95;;;;;;;;;;5114986;28;20188;-64
2020/12/16 07:02:12;;;;;;;54.72;28.35;;;;;;;;;;5115107;28;20256;-62
2020/12/16 07:04:39;;;;;;;56.72;29.00;;;;;;;;;;5115009;28;20268;-62
2020/12/16 07:07:07;;;;;;;53.55;28.25;;;;;;;;;;5114565;28;20219;-62
2020/12/16 07:09:34;;;;;;;63.13;30.38;;;;;;;;;;5114661;28;20207;-63
2020/12/16 07:12:01;;;;;;;50.03;28.27;;;;;;;;;;5114507;28;20741;-63
2020/12/16 07:14:33;;;;;;;54.92;29.50;;;;;;;;;;5114809;28;20203;-63
2020/12/16 07:17:07;;;;;;;53.80;31.33;;;;;;;;;;5114625;28;20180;-61
2020/12/16 07:19:34;;;;;;;58.97;32.50;;;;;;;;;;5114823;28;20599;-63
2020/12/16 07:22:16;;;;;;;52.78;28.77;;;;;;;;;;5114368;28;20211;-62
2020/12/16 07:24:48;;;;;;;59.67;29.08;;;;;;;;;;5114764;28;20271;-63
2020/12/16 07:27:18;;;;;;;57.67;31.52;;;;;;;;;;5114157;28;20675;-63
2020/12/16 07:29:53;;;;;;;50.60;29.02;;;;;;;;;;5114606;28;20210;-63
2020/12/16 07:32:21;;;;;;;50.28;26.95;;;;;;;;;;5114609;28;20525;-64
2020/12/16 07:34:49;;;;;;;48.03;26.52;;;;;;;;;;5114410;28;20203;-61
2020/12/16 07:37:17;;;;;;;49.75;27.08;;;;;;;;;;5114209;28;20200;-61
2020/12/16 07:39:49;;;;;;;52.15;27.02;;;;;;;;;;5114573;28;20206;-62
2020/12/16 07:42:20;;;;;;;49.45;26.98;;;;;;;;;;5113870;28;20184;-62
2020/12/16 07:44:47;;;;;;;56.10;28.45;;;;;;;;;;5114466;28;20204;-63
2020/12/16 07:47:13;;;;;;;58.72;28.40;;;;;;;;;;5114129;28;20242;-61
2020/12/16 07:49:40;;;;;;;56.00;28.55;;;;;;;;;;5113767;28;20580;-63
2020/12/16 07:52:07;;;;;;;50.55;27.42;;;;;;;;;;5114196;28;20210;-62
2020/12/16 07:54:34;;;;;;;57.80;31.13;;;;;;;;;;5114266;28;20196;-62
2020/12/16 07:57:02;;;;;;;55.97;29.92;;;;;;;;;;5114069;28;20199;-63
2020/12/16 07:59:29;;;;;;;62.22;29.88;;;;;;;;;;5114755;28;20199;-61
2020/12/16 08:02:05;;;;;;;58.25;31.48;;;;;;;;;;5115079;28;20223;-62
2020/12/16 08:04:31;;;;;;;56.47;30.70;;;;;;;;;;5114980;28;20188;-62
2020/12/16 08:07:10;;;;;;;57.80;31.08;;;;;;;;;;5114202;28;20219;-63
2020/12/16 08:09:37;;;;;;;57.33;30.05;;;;;;;;;;5114671;28;20195;-63
2020/12/16 08:12:04;;;;;;;56.55;28.40;;;;;;;;;;5115294;28;20196;-61
2020/12/16 08:14:31;;;;;;;53.25;28.77;;;;;;;;;;5114644;28;20203;-61
2020/12/16 08:17:09;;;;;;;53.45;29.50;;;;;;;;;;5114517;28;20238;-61
2020/12/16 08:19:36;;;;;;;51.50;26.55;;;;;;;;;;5114516;28;20266;-63
2020/12/16 08:22:11;;;;;;;53.17;29.02;;;;;;;;;;5113985;28;20206;-63
2020/12/16 08:24:38;;;;;;;50.65;31.65;;;;;;;;;;5114288;28;20687;-62
2020/12/16 08:27:05;;;;;;;51.55;29.10;;;;;;;;;;5114399;28;20249;-62
2020/12/16 08:29:33;;;;;;;50.92;29.17;;;;;;;;;;5114438;28;20200;-63
2020/12/16 08:32:00;;;;;;;49.85;27.25;;;;;;;;;;5114636;28;20203;-62
2020/12/16 08:34:28;;;;;;;46.63;27.10;;;;;;;;;;5114692;28;20210;-62
2020/12/16 08:36:56;;;;;;;46.60;25.73;;;;;;;;;;5115662;28;20291;-62
2020/12/16 08:39:25;;;;;;;44.08;27.90;;;;;;;;;;5115523;28;20548;-61
2020/12/16 08:41:54;;;;;;;45.45;27.75;;;;;;;;;;5115800;28;20219;-61
2020/12/16 08:44:23;;;;;;;43.20;24.75;;;;;;;;;;5114461;28;20660;-61
2020/12/16 08:46:50;;;;;;;46.28;26.10;;;;;;;;;;5113972;28;20722;-62
2020/12/16 08:49:21;;;;;;;44.40;25.92;;;;;;;;;;5113766;28;20207;-62
2020/12/16 08:51:47;;;;;;;40.60;25.60;;;;;;;;;;5113414;28;20227;-63
2020/12/16 08:54:16;;;;;;;44.28;26.65;;;;;;;;;;5117147;28;20222;-62
2020/12/16 08:56:50;;;;;;;46.90;26.90;;;;;;;;;;5117396;28;20562;-61
2020/12/16 08:59:18;;;;;;;40.63;25.98;;;;;;;;;;5118261;28;20199;-61
2020/12/16 09:01:46;;;;;;;40.85;26.85;;;;;;;;;;5117303;28;20604;-62
2020/12/16 09:04:21;;;;;;;42.65;25.25;;;;;;;;;;5117403;28;20274;-63
2020/12/16 09:06:58;;;;;;;42.63;25.83;;;;;;;;;;5116560;28;20230;-64
2020/12/16 09:09:25;;;;;;;37.13;26.02;;;;;;;;;;5115953;28;20442;-64
2020/12/16 09:11:52;;;;;;;30.27;23.42;;;;;;;;;;5115744;28;20491;-61
2020/12/16 09:14:19;;;;;;;27.52;21.75;;;;;;;;;;5117115;28;20200;-62
2020/12/16 09:16:46;;;;;;;27.15;21.33;;;;;;;;;;5117218;28;20191;-60
2020/12/16 09:19:17;;;;;;;26.15;20.50;;;;;;;;;;5116722;28;20199;-60
2020/12/16 09:21:44;;;;;;;34.00;21.63;;;;;;;;;;5116458;28;20715;-63
2020/12/16 09:24:10;;;;;;;28.38;20.55;;;;;;;;;;5116964;28;20587;-62
2020/12/16 09:26:41;;;;;;;28.77;22.35;;;;;;;;;;5117827;28;20230;-62
2020/12/16 09:29:29;;;;;;;24.08;19.33;;;;;;;;;;5116595;28;20211;-62
2020/12/16 09:32:08;;;;;;;27.23;20.90;;;;;;;;;;5111681;28;20699;-62
2020/12/16 09:34:39;;;;;;;27.73;19.08;;;;;;;;;;5117131;28;20192;-60
2020/12/16 09:37:12;;;;;;;30.05;18.75;;;;;;;;;;5116896;28;20196;-62
2020/12/16 09:39:39;;;;;;;25.40;19.25;;;;;;;;;;5116507;28;20206;-62
2020/12/16 09:42:09;;;;;;;25.35;18.67;;;;;;;;;;5118145;28;20568;-63
2020/12/16 09:44:35;;;;;;;23.45;18.48;;;;;;;;;;5125631;28;20652;-62
2020/12/16 09:47:13;;;;;;;27.40;21.27;;;;;;;;;;5127792;28;20224;-62
2020/12/16 09:49:41;;;;;;;28.88;20.00;;;;;;;;;;5128657;27;20223;-62
2020/12/16 09:52:22;;;;;;;25.13;18.85;;;;;;;;;;5129687;28;20257;-62
2020/12/16 09:54:49;;;;;;;23.77;18.50;;;;;;;;;;5126796;28;20642;-62
2020/12/16 09:57:16;;;;;;;24.38;20.08;;;;;;;;;;5116441;28;20200;-62
2020/12/16 09:59:42;;;;;;;23.23;19.50;;;;;;;;;;5116577;28;20759;-62
2020/12/16 10:02:09;;;;;;;22.45;18.95;;;;;;;;;;5116725;28;20196;-61
2020/12/16 10:04:37;;;;;;;23.77;19.67;;;;;;;;;;5115792;28;20244;-60
2020/12/16 10:07:03;;;;;;;25.90;20.25;;;;;;;;;;5115909;27;20253;-62
2020/12/16 10:09:35;;;;;;;22.33;19.27;;;;;;;;;;5116071;28;20200;-62
2020/12/16 10:12:02;;;;;;;23.30;18.98;;;;;;;;;;5116003;28;20195;-65
2020/12/16 10:14:29;;;;;;;24.42;17.65;;;;;;;;;;5115649;28;20207;-62
2020/12/16 10:16:55;;;;;;;23.35;17.95;;;;;;;;;;5115899;28;20200;-61
2020/12/16 10:19:22;;;;;;;25.45;19.60;;;;;;;;;;5117441;28;20222;-61
2020/12/16 10:21:50;;;;;;;25.27;20.80;;;;;;;;;;5116898;28;20231;-62
2020/12/16 10:24:17;;;;;;;27.70;20.15;;;;;;;;;;5116110;28;20199;-62
2020/12/16 10:26:46;;;;;;;24.23;19.73;;;;;;;;;;5116482;28;20273;-63
2020/12/16 10:29:13;;;;;;;23.02;18.92;;;;;;;;;;5115846;28;20199;-62
2020/12/16 10:31:40;;;;;;;21.60;18.30;;;;;;;;;;5115788;28;20220;-61
2020/12/16 10:34:06;;;;;;;24.70;21.08;;;;;;;;;;5116370;28;20195;-61
2020/12/16 10:36:33;;;;;;;26.10;21.95;;;;;;;;;;5115835;28;20243;-62
2020/12/16 10:39:01;;;;;;;25.58;20.00;;;;;;;;;;5115566;28;20200;-62
2020/12/16 10:41:27;;;;;;;23.33;19.13;;;;;;;;;;5115963;28;20220;-61
2020/12/16 10:43:54;;;;;;;25.60;20.42;;;;;;;;;;5116073;28;20195;-62
2020/12/16 10:46:21;;;;;;;24.70;19.25;;;;;;;;;;5117502;28;20587;-63
2020/12/16 10:48:48;;;;;;;28.27;19.83;;;;;;;;;;5115307;28;20679;-62
2020/12/16 10:51:14;;;;;;;24.60;20.08;;;;;;;;;;5115684;28;20310;-60
2020/12/16 10:53:41;;;;;;;24.40;19.60;;;;;;;;;;5116042;28;20208;-62
2020/12/16 10:56:09;;;;;;;22.80;19.30;;;;;;;;;;5116056;28;20543;-61
2020/12/16 10:58:35;;;;;;;21.50;19.17;;;;;;;;;;5115923;28;20227;-62
2020/12/16 11:01:03;;;;;;;24.63;19.23;;;;;;;;;;5115504;27;20216;-62
2020/12/16 11:03:30;;;;;;;23.52;19.00;;;;;;;;;;5115505;28;20615;-62
2020/12/16 11:05:57;;;;;;;20.55;18.33;;;;;;;;;;5116000;28;20257;-62
2020/12/16 11:08:23;;;;;;;21.97;18.70;;;;;;;;;;5115171;28;20208;-61
2020/12/16 11:10:50;;;;;;;23.00;17.20;;;;;;;;;;5114417;28;20477;-62
2020/12/16 11:13:17;;;;;;;20.10;17.00;;;;;;;;;;5114612;28;20972;-61
2020/12/16 11:15:44;;;;;;;20.92;17.30;;;;;;;;;;5114539;28;20225;-62
2020/12/16 11:18:12;;;;;;;18.15;14.90;;;;;;;;;;5114816;28;20698;-62
2020/12/16 11:20:38;;;;;;;20.70;17.80;;;;;;;;;;5114854;28;20288;-62
2020/12/16 11:23:05;;;;;;;19.33;17.23;;;;;;;;;;5114571;28;20445;-63
2020/12/16 11:25:32;;;;;;;19.07;15.67;;;;;;;;;;5114382;28;20491;-61
2020/12/16 11:27:59;;;;;;;17.17;15.40;;;;;;;;;;5114607;28;20473;-61
2020/12/16 11:30:25;;;;;;;17.50;15.17;;;;;;;;;;5114642;28;20560;-61
2020/12/16 11:32:52;;;;;;;19.70;16.43;;;;;;;;;;5114506;28;20456;-61
2020/12/16 11:35:21;;;;;;;19.27;15.30;;;;;;;;;;5114713;28;20438;-61
2020/12/16 11:37:49;;;;;;;16.33;14.53;;;;;;;;;;5115119;28;20873;-64
2020/12/16 11:40:16;;;;;;;19.90;16.00;;;;;;;;;;5114809;28;20485;-65
2020/12/16 11:42:43;;;;;;;19.37;16.53;;;;;;;;;;5114555;28;20452;-64
2020/12/16 11:45:10;;;;;;;19.13;16.50;;;;;;;;;;5114639;28;20933;-63
2020/12/16 11:47:36;;;;;;;21.10;17.53;;;;;;;;;;5114552;28;20992;-64
2020/12/16 11:50:05;;;;;;;18.60;16.20;;;;;;;;;;5114420;28;20465;-63
2020/12/16 11:52:33;;;;;;;19.90;17.50;;;;;;;;;;5114218;28;20460;-63
2020/12/16 11:54:59;;;;;;;20.97;17.17;;;;;;;;;;5114287;28;20566;-64
2020/12/16 11:57:26;;;;;;;19.13;16.40;;;;;;;;;;5114649;28;20437;-64
2020/12/16 11:59:53;;;;;;;20.63;17.40;;;;;;;;;;5114834;28;20490;-64
2020/12/16 12:02:19;;;;;;;19.80;16.70;;;;;;;;;;5116092;28;20454;-64
2020/12/16 12:04:46;;;;;;;24.00;19.33;;;;;;;;;;5118863;28;20461;-65
2020/12/16 12:07:13;;;;;;;18.70;15.43;;;;;;;;;;5117759;28;20492;-64
2020/12/16 12:09:41;;;;;;;21.00;16.73;;;;;;;;;;5118205;28;20452;-63
2020/12/16 12:12:07;;;;;;;20.00;17.10;;;;;;;;;;5118130;28;20593;-64
2020/12/16 12:14:34;;;;;;;21.13;16.07;;;;;;;;;;5117470;28;20448;-65
2020/12/16 12:17:01;;;;;;;20.53;17.83;;;;;;;;;;5117994;28;20437;-63
2020/12/16 12:19:30;;;;;;;21.30;18.43;;;;;;;;;;5116252;28;20445;-65
2020/12/16 12:21:57;;;;;;;23.57;17.97;;;;;;;;;;5113554;28;20465;-63
2020/12/16 12:24:24;;;;;;;20.17;17.30;;;;;;;;;;5113194;28;20574;-64
2020/12/16 12:26:52;;;;;;;21.10;17.30;;;;;;;;;;5113448;28;20477;-63
2020/12/16 12:29:19;;;;;;;20.03;16.80;;;;;;;;;;5117328;28;20441;-64
2020/12/16 12:31:45;;;;;;;21.53;17.43;;;;;;;;;;5117628;28;20461;-63
2020/12/16 12:34:12;;;;;;;21.77;15.87;;;;;;;;;;5117566;28;20445;-64
2020/12/16 12:36:39;;;;;;;19.47;16.37;;;;;;;;;;5117409;28;20544;-63
2020/12/16 12:39:06;;;;;;;20.33;17.60;;;;;;;;;;5117594;28;20437;-64
2020/12/16 12:41:33;;;;;;;19.70;17.00;;;;;;;;;;5117354;28;20473;-65
2020/12/16 12:44:00;;;;;;;21.50;17.47;;;;;;;;;;5117075;28;20841;-65
2020/12/16 12:46:27;;;;;;;19.13;14.97;;;;;;;;;;5117833;28;20480;-63
2020/12/16 12:48:54;;;;;;;19.80;16.30;;;;;;;;;;5117070;28;20793;-64
2020/12/16 12:51:23;;;;;;;18.17;15.50;;;;;;;;;;5117039;28;20559;-64
2020/12/16 12:53:49;;;;;;;17.53;14.53;;;;;;;;;;5116751;28;20483;-64
2020/12/16 12:56:17;;;;;;;18.73;15.37;;;;;;;;;;5117052;28;20441;-63
2020/12/16 12:58:44;;;;;;;18.57;15.53;;;;;;;;;;5117452;28;20448;-64
2020/12/16 13:01:12;;;;;;;17.83;13.07;;;;;;;;;;5116484;28;20460;-64
2020/12/16 13:03:38;;;;;;;18.10;15.33;;;;;;;;;;5117398;28;20445;-63
2020/12/16 13:06:07;;;;;;;16.77;14.60;;;;;;;;;;5117095;28;20477;-63
2020/12/16 13:08:34;;;;;;;17.30;14.80;;;;;;;;;;5117624;28;20446;-63
2020/12/16 13:11:01;;;;;;;15.03;13.40;;;;;;;;;;5117132;28;20513;-64
2020/12/16 13:13:28;;;;;;;14.13;12.70;;;;;;;;;;5117364;28;20526;-62
2020/12/16 13:15:55;;;;;;;21.10;16.00;;;;;;;;;;5116641;28;20873;-64
2020/12/16 13:18:22;;;;;;;15.27;13.10;;;;;;;;;;5117607;28;20453;-63
2020/12/16 13:20:52;;;;;;;15.10;12.73;;;;;;;;;;5118059;28;20465;-63
2020/12/16 13:23:19;;;;;;;12.20;10.90;;;;;;;;;;5119351;28;20422;-64
2020/12/16 13:25:46;;;;;;;13.40;11.83;;;;;;;;;;5118276;28;20833;-64
2020/12/16 13:28:13;;;;;;;12.63;11.27;;;;;;;;;;5117468;28;20835;-63
2020/12/16 13:30:39;;;;;;;11.77;10.47;;;;;;;;;;5117547;28;20991;-63
2020/12/16 13:33:06;;;;;;;12.80;11.00;;;;;;;;;;5117134;28;20441;-64
2020/12/16 13:35:34;;;;;;;11.10;9.90;;;;;;;;;;5117808;28;20464;-64
2020/12/16 13:38:00;;;;;;;10.60;9.40;;;;;;;;;;5117609;28;20471;-64
2020/12/16 13:40:28;;;;;;;11.47;10.27;;;;;;;;;;5117346;28;20522;-65
2020/12/16 13:42:54;;;;;;;14.50;11.10;;;;;;;;;;5116700;28;20453;-65
2020/12/16 13:45:21;;;;;;;12.90;10.60;;;;;;;;;;5116407;28;20518;-63
2020/12/16 13:47:49;;;;;;;11.63;10.07;;;;;;;;;;5116365;28;20480;-64
2020/12/16 13:50:16;;;;;;;12.63;10.07;;;;;;;;;;5116289;28;20513;-64
2020/12/16 13:52:44;;;;;;;11.53;9.60;;;;;;;;;;5115884;28;20494;-64
2020/12/16 13:55:13;;;;;;;10.50;9.30;;;;;;;;;;5115935;28;20441;-64
2020/12/16 13:57:39;;;;;;;11.00;9.40;;;;;;;;;;5116223;28;20461;-63
2020/12/16 14:00:07;;;;;;;11.07;9.50;;;;;;;;;;5115758;28;20517;-64
2020/12/16 14:02:33;;;;;;;10.97;9.10;;;;;;;;;;5116620;28;20571;-64
2020/12/16 14:05:00;;;;;;;9.80;8.67;;;;;;;;;;5116222;28;20454;-63
2020/12/16 14:07:27;;;;;;;11.27;8.40;;;;;;;;;;5115980;28;20484;-62
2020/12/16 14:09:55;;;;;;;9.90;8.80;;;;;;;;;;5117036;28;20468;-64
2020/12/16 14:12:21;;;;;;;10.57;9.07;;;;;;;;;;5117503;28;20482;-63
2020/12/16 14:14:48;;;;;;;9.83;8.73;;;;;;;;;;5115946;28;20448;-63
2020/12/16 14:17:15;;;;;;;14.93;13.40;;;;;;;;;;5115600;28;20804;-63
2020/12/16 14:19:42;;;;;;;12.57;10.60;;;;;;;;;;5115817;28;20456;-64
2020/12/16 14:22:08;;;;;;;14.50;12.10;;;;;;;;;;5114680;28;20435;-64
2020/12/16 14:24:35;;;;;;;13.20;11.80;;;;;;;;;;5115663;28;20660;-65